sensor_id;sensor_type;location;lat;lon;timestamp;temperature;humidity
56162;DHT22;42045;52.986;6.014;2023-02-01T00:01:07;5.30;99.90
56162;DHT22;42045;52.986;6.014;2023-02-01T00:03:36;5.30;99.90
56162;DHT22;42045;52.986;6.014;2023-02-01T00:06:02;5.40;99.90
56162;DHT22;42045;52.986;6.014;2023-02-01T00:08:28;5.40;99.90
56162;DHT22;42045;52.986;6.014;2023-02-01T00:11:00;5.40;99.90
56162;DHT22;42045;52.986;6.014;2023-02-01T00:13:29;5.40;99.90
56162;DHT22;42045;52.986;6.014;2023-02-01T00:15:55;5.40;99.90
56162;DHT22;42045;52.986;6.014;2023-02-01T00:18:27;5.40;99.90
56162;DHT22;42045;52.986;6.014;2023-02-01T00:20:52;5.40;99.90
56162;DHT22;42045;52.986;6.014;2023-02-01T00:23:18;5.40;99.90
56162;DHT22;42045;52.986;6.014;2023-02-01T00:25:44;5.40;99.90
56162;DHT22;42045;52.986;6.014;2023-02-01T00:28:10;5.40;99.90
56162;DHT22;42045;52.986;6.014;2023-02-01T00:30:38;5.40;99.90
56162;DHT22;42045;52.986;6.014;2023-02-01T00:33:04;5.50;99.90
56162;DHT22;42045;52.986;6.014;2023-02-01T00:35:31;5.50;99.90
56162;DHT22;42045;52.986;6.014;2023-02-01T00:38:00;5.40;99.90
56162;DHT22;42045;52.986;6.014;2023-02-01T00:40:26;5.40;99.90
56162;DHT22;42045;52.986;6.014;2023-02-01T00:42:54;5.40;99.90
56162;DHT22;42045;52.986;6.014;2023-02-01T00:45:25;5.40;99.90
56162;DHT22;42045;52.986;6.014;2023-02-01T00:47:51;5.40;99.90
56162;DHT22;42045;52.986;6.014;2023-02-01T00:50:19;5.40;99.90
56162;DHT22;42045;52.986;6.014;2023-02-01T00:52:45;5.40;99.90
56162;DHT22;42045;52.986;6.014;2023-02-01T00:55:10;5.50;99.90
56162;DHT22;42045;52.986;6.014;2023-02-01T00:57:36;5.50;99.90
56162;DHT22;42045;52.986;6.014;2023-02-01T01:00:02;5.50;99.90
56162;DHT22;42045;52.986;6.014;2023-02-01T01:02:28;5.50;99.90
56162;DHT22;42045;52.986;6.014;2023-02-01T01:04:54;5.50;99.90
56162;DHT22;42045;52.986;6.014;2023-02-01T01:07:20;5.50;99.90
56162;DHT22;42045;52.986;6.014;2023-02-01T01:09:46;5.60;99.90
56162;DHT22;42045;52.986;6.014;2023-02-01T01:12:14;5.50;99.90
56162;DHT22;42045;52.986;6.014;2023-02-01T01:14:40;5.60;99.90
56162;DHT22;42045;52.986;6.014;2023-02-01T01:17:06;5.50;99.90
56162;DHT22;42045;52.986;6.014;2023-02-01T01:19:34;5.50;99.90
56162;DHT22;42045;52.986;6.014;2023-02-01T01:22:00;5.50;99.90
56162;DHT22;42045;52.986;6.014;2023-02-01T01:24:25;5.50;99.90
56162;DHT22;42045;52.986;6.014;2023-02-01T01:26:51;5.60;99.90
56162;DHT22;42045;52.986;6.014;2023-02-01T01:29:20;5.60;99.90
56162;DHT22;42045;52.986;6.014;2023-02-01T01:31:47;5.60;99.90
56162;DHT22;42045;52.986;6.014;2023-02-01T01:34:14;5.70;99.90
56162;DHT22;42045;52.986;6.014;2023-02-01T01:36:40;5.80;99.90
56162;DHT22;42045;52.986;6.014;2023-02-01T01:39:05;5.80;99.90
56162;DHT22;42045;52.986;6.014;2023-02-01T01:41:32;5.80;99.90
56162;DHT22;42045;52.986;6.014;2023-02-01T01:44:06;5.80;99.90
56162;DHT22;42045;52.986;6.014;2023-02-01T01:46:35;5.70;99.90
56162;DHT22;42045;52.986;6.014;2023-02-01T01:51:35;5.70;99.90
56162;DHT22;42045;52.986;6.014;2023-02-01T01:54:17;5.70;99.90
56162;DHT22;42045;52.986;6.014;2023-02-01T01:56:47;5.60;99.90
56162;DHT22;42045;52.986;6.014;2023-02-01T01:59:14;5.70;99.90
56162;DHT22;42045;52.986;6.014;2023-02-01T02:01:40;5.70;99.90
56162;DHT22;42045;52.986;6.014;2023-02-01T02:04:06;5.60;99.90
56162;DHT22;42045;52.986;6.014;2023-02-01T02:09:23;5.60;99.90
56162;DHT22;42045;52.986;6.014;2023-02-01T02:11:49;5.60;99.90
56162;DHT22;42045;52.986;6.014;2023-02-01T02:14:21;5.60;99.90
56162;DHT22;42045;52.986;6.014;2023-02-01T02:17:03;5.60;99.90
56162;DHT22;42045;52.986;6.014;2023-02-01T02:30:50;5.50;99.90
56162;DHT22;42045;52.986;6.014;2023-02-01T02:36:10;5.60;99.90
56162;DHT22;42045;52.986;6.014;2023-02-01T02:41:23;5.60;99.90
56162;DHT22;42045;52.986;6.014;2023-02-01T02:47:56;5.60;99.90
56162;DHT22;42045;52.986;6.014;2023-02-01T02:50:32;5.60;99.90
56162;DHT22;42045;52.986;6.014;2023-02-01T02:53:23;5.60;99.90
56162;DHT22;42045;52.986;6.014;2023-02-01T02:56:10;5.70;99.90
56162;DHT22;42045;52.986;6.014;2023-02-01T02:58:55;5.60;99.90
56162;DHT22;42045;52.986;6.014;2023-02-01T03:01:40;5.70;99.90
56162;DHT22;42045;52.986;6.014;2023-02-01T03:04:30;5.70;99.90
56162;DHT22;42045;52.986;6.014;2023-02-01T03:07:44;5.70;99.90
56162;DHT22;42045;52.986;6.014;2023-02-01T03:09:58;5.70;99.90
56162;DHT22;42045;52.986;6.014;2023-02-01T03:12:30;5.80;99.90
56162;DHT22;42045;52.986;6.014;2023-02-01T03:15:17;5.80;99.90
56162;DHT22;42045;52.986;6.014;2023-02-01T03:17:46;5.80;99.90
56162;DHT22;42045;52.986;6.014;2023-02-01T03:20:14;5.80;99.90
56162;DHT22;42045;52.986;6.014;2023-02-01T03:22:41;5.80;99.90
56162;DHT22;42045;52.986;6.014;2023-02-01T03:25:15;5.80;99.90
56162;DHT22;42045;52.986;6.014;2023-02-01T03:27:59;5.90;99.90
56162;DHT22;42045;52.986;6.014;2023-02-01T03:30:28;5.90;99.90
56162;DHT22;42045;52.986;6.014;2023-02-01T03:32:57;5.90;99.90
56162;DHT22;42045;52.986;6.014;2023-02-01T03:38:38;5.80;99.90
56162;DHT22;42045;52.986;6.014;2023-02-01T03:46:20;5.90;99.90
56162;DHT22;42045;52.986;6.014;2023-02-01T03:48:47;5.90;99.90
56162;DHT22;42045;52.986;6.014;2023-02-01T03:51:13;5.90;99.90
56162;DHT22;42045;52.986;6.014;2023-02-01T03:53:40;5.90;99.90
56162;DHT22;42045;52.986;6.014;2023-02-01T03:56:08;5.80;99.90
56162;DHT22;42045;52.986;6.014;2023-02-01T03:58:40;5.90;99.90
56162;DHT22;42045;52.986;6.014;2023-02-01T04:01:09;5.90;99.90
56162;DHT22;42045;52.986;6.014;2023-02-01T04:03:36;5.90;99.90
56162;DHT22;42045;52.986;6.014;2023-02-01T04:06:02;5.90;99.90
56162;DHT22;42045;52.986;6.014;2023-02-01T04:08:30;5.80;99.90
56162;DHT22;42045;52.986;6.014;2023-02-01T04:10:56;5.80;99.90
56162;DHT22;42045;52.986;6.014;2023-02-01T04:13:26;5.80;99.90
56162;DHT22;42045;52.986;6.014;2023-02-01T04:15:51;5.80;99.90
56162;DHT22;42045;52.986;6.014;2023-02-01T04:18:17;5.80;99.90
56162;DHT22;42045;52.986;6.014;2023-02-01T04:20:43;5.80;99.90
56162;DHT22;42045;52.986;6.014;2023-02-01T04:23:09;5.80;99.90
56162;DHT22;42045;52.986;6.014;2023-02-01T04:25:35;5.80;99.90
56162;DHT22;42045;52.986;6.014;2023-02-01T04:28:01;5.80;99.90
56162;DHT22;42045;52.986;6.014;2023-02-01T04:30:27;5.90;99.90
56162;DHT22;42045;52.986;6.014;2023-02-01T04:32:56;5.80;99.90
56162;DHT22;42045;52.986;6.014;2023-02-01T04:35:23;5.80;99.90
56162;DHT22;42045;52.986;6.014;2023-02-01T04:37:48;5.80;99.90
56162;DHT22;42045;52.986;6.014;2023-02-01T04:40:14;5.70;99.90
56162;DHT22;42045;52.986;6.014;2023-02-01T04:42:42;5.70;99.90
56162;DHT22;42045;52.986;6.014;2023-02-01T04:45:08;5.60;99.90
56162;DHT22;42045;52.986;6.014;2023-02-01T04:47:55;5.50;99.90
56162;DHT22;42045;52.986;6.014;2023-02-01T04:50:23;5.40;99.90
56162;DHT22;42045;52.986;6.014;2023-02-01T04:52:49;5.40;99.90
56162;DHT22;42045;52.986;6.014;2023-02-01T04:55:15;5.40;99.90
56162;DHT22;42045;52.986;6.014;2023-02-01T04:57:41;5.30;99.90
56162;DHT22;42045;52.986;6.014;2023-02-01T05:00:10;5.30;99.90
56162;DHT22;42045;52.986;6.014;2023-02-01T05:02:36;5.40;99.90
56162;DHT22;42045;52.986;6.014;2023-02-01T05:05:05;5.50;99.90
56162;DHT22;42045;52.986;6.014;2023-02-01T05:07:34;5.50;99.90
56162;DHT22;42045;52.986;6.014;2023-02-01T05:10:03;5.60;99.90
56162;DHT22;42045;52.986;6.014;2023-02-01T05:12:35;5.60;99.90
56162;DHT22;42045;52.986;6.014;2023-02-01T05:15:20;5.60;99.90
56162;DHT22;42045;52.986;6.014;2023-02-01T05:17:48;5.70;99.90
56162;DHT22;42045;52.986;6.014;2023-02-01T05:20:20;5.70;99.90
56162;DHT22;42045;52.986;6.014;2023-02-01T05:22:51;5.70;99.90
56162;DHT22;42045;52.986;6.014;2023-02-01T05:25:19;5.70;99.90
56162;DHT22;42045;52.986;6.014;2023-02-01T05:27:45;5.80;99.90
56162;DHT22;42045;52.986;6.014;2023-02-01T05:30:11;5.80;99.90
56162;DHT22;42045;52.986;6.014;2023-02-01T05:32:37;5.80;99.90
56162;DHT22;42045;52.986;6.014;2023-02-01T05:35:04;5.80;99.90
56162;DHT22;42045;52.986;6.014;2023-02-01T05:37:30;5.80;99.90
56162;DHT22;42045;52.986;6.014;2023-02-01T05:39:55;5.80;99.90
56162;DHT22;42045;52.986;6.014;2023-02-01T05:42:21;5.80;99.90
56162;DHT22;42045;52.986;6.014;2023-02-01T05:44:47;5.80;99.90
56162;DHT22;42045;52.986;6.014;2023-02-01T05:47:13;5.80;99.90
56162;DHT22;42045;52.986;6.014;2023-02-01T05:49:38;5.80;99.90
56162;DHT22;42045;52.986;6.014;2023-02-01T05:52:05;5.80;99.90
56162;DHT22;42045;52.986;6.014;2023-02-01T05:54:32;5.80;99.90
56162;DHT22;42045;52.986;6.014;2023-02-01T05:56:58;5.80;99.90
56162;DHT22;42045;52.986;6.014;2023-02-01T05:59:23;5.80;99.90
56162;DHT22;42045;52.986;6.014;2023-02-01T06:01:51;5.80;99.90
56162;DHT22;42045;52.986;6.014;2023-02-01T06:04:17;5.80;99.90
56162;DHT22;42045;52.986;6.014;2023-02-01T06:06:45;5.70;99.90
56162;DHT22;42045;52.986;6.014;2023-02-01T06:09:11;5.70;99.90
56162;DHT22;42045;52.986;6.014;2023-02-01T06:11:37;5.60;99.90
56162;DHT22;42045;52.986;6.014;2023-02-01T06:14:02;5.60;99.90
56162;DHT22;42045;52.986;6.014;2023-02-01T06:16:28;5.70;99.90
56162;DHT22;42045;52.986;6.014;2023-02-01T06:18:54;5.60;99.90
56162;DHT22;42045;52.986;6.014;2023-02-01T06:21:20;5.50;99.90
56162;DHT22;42045;52.986;6.014;2023-02-01T06:23:52;5.60;99.90
56162;DHT22;42045;52.986;6.014;2023-02-01T06:26:19;5.60;99.90
56162;DHT22;42045;52.986;6.014;2023-02-01T06:28:45;5.60;99.90
56162;DHT22;42045;52.986;6.014;2023-02-01T06:31:11;5.60;99.90
56162;DHT22;42045;52.986;6.014;2023-02-01T06:33:37;5.60;99.90
56162;DHT22;42045;52.986;6.014;2023-02-01T06:36:06;5.60;99.90
56162;DHT22;42045;52.986;6.014;2023-02-01T06:38:33;5.60;99.90
56162;DHT22;42045;52.986;6.014;2023-02-01T06:41:03;5.70;99.90
56162;DHT22;42045;52.986;6.014;2023-02-01T06:43:29;5.70;99.90
56162;DHT22;42045;52.986;6.014;2023-02-01T06:46:09;5.60;99.90
56162;DHT22;42045;52.986;6.014;2023-02-01T06:48:36;5.70;99.90
56162;DHT22;42045;52.986;6.014;2023-02-01T06:51:02;5.60;99.90
56162;DHT22;42045;52.986;6.014;2023-02-01T06:53:28;5.60;99.90
56162;DHT22;42045;52.986;6.014;2023-02-01T06:55:54;5.70;99.90
56162;DHT22;42045;52.986;6.014;2023-02-01T06:58:20;5.70;99.90
56162;DHT22;42045;52.986;6.014;2023-02-01T07:00:46;5.80;99.90
56162;DHT22;42045;52.986;6.014;2023-02-01T07:03:13;5.70;99.90
56162;DHT22;42045;52.986;6.014;2023-02-01T07:05:39;5.80;99.90
56162;DHT22;42045;52.986;6.014;2023-02-01T07:08:05;5.70;99.90
56162;DHT22;42045;52.986;6.014;2023-02-01T07:10:30;5.80;99.90
56162;DHT22;42045;52.986;6.014;2023-02-01T07:12:57;5.80;99.90
56162;DHT22;42045;52.986;6.014;2023-02-01T07:15:23;5.70;99.90
56162;DHT22;42045;52.986;6.014;2023-02-01T07:17:55;5.80;99.90
56162;DHT22;42045;52.986;6.014;2023-02-01T07:20:21;5.70;99.90
56162;DHT22;42045;52.986;6.014;2023-02-01T07:22:47;5.70;99.90
56162;DHT22;42045;52.986;6.014;2023-02-01T07:25:14;5.60;99.90
56162;DHT22;42045;52.986;6.014;2023-02-01T07:27:40;5.60;99.90
56162;DHT22;42045;52.986;6.014;2023-02-01T07:30:06;5.50;99.90
56162;DHT22;42045;52.986;6.014;2023-02-01T07:32:32;5.50;99.90
56162;DHT22;42045;52.986;6.014;2023-02-01T07:34:58;5.40;99.90
56162;DHT22;42045;52.986;6.014;2023-02-01T07:37:26;5.40;99.90
56162;DHT22;42045;52.986;6.014;2023-02-01T07:39:53;5.40;99.90
56162;DHT22;42045;52.986;6.014;2023-02-01T07:42:22;5.40;99.90
56162;DHT22;42045;52.986;6.014;2023-02-01T07:44:50;5.40;99.90
56162;DHT22;42045;52.986;6.014;2023-02-01T07:47:16;5.40;99.90
56162;DHT22;42045;52.986;6.014;2023-02-01T07:49:42;5.40;99.90
56162;DHT22;42045;52.986;6.014;2023-02-01T07:52:08;5.30;99.90
56162;DHT22;42045;52.986;6.014;2023-02-01T07:54:36;5.40;99.90
56162;DHT22;42045;52.986;6.014;2023-02-01T07:57:03;5.40;99.90
56162;DHT22;42045;52.986;6.014;2023-02-01T07:59:29;5.40;99.90
56162;DHT22;42045;52.986;6.014;2023-02-01T08:01:55;5.40;99.90
56162;DHT22;42045;52.986;6.014;2023-02-01T08:04:20;5.40;99.90
56162;DHT22;42045;52.986;6.014;2023-02-01T08:06:48;5.50;99.90
56162;DHT22;42045;52.986;6.014;2023-02-01T08:09:14;5.50;99.90
56162;DHT22;42045;52.986;6.014;2023-02-01T08:11:40;5.50;99.90
56162;DHT22;42045;52.986;6.014;2023-02-01T08:14:06;5.60;99.90
56162;DHT22;42045;52.986;6.014;2023-02-01T08:16:32;5.60;99.90
56162;DHT22;42045;52.986;6.014;2023-02-01T08:19:02;5.60;99.90
56162;DHT22;42045;52.986;6.014;2023-02-01T08:21:28;5.60;99.90
56162;DHT22;42045;52.986;6.014;2023-02-01T08:24:04;5.70;99.90
56162;DHT22;42045;52.986;6.014;2023-02-01T08:26:32;5.80;99.90
56162;DHT22;42045;52.986;6.014;2023-02-01T08:29:01;5.80;99.90
56162;DHT22;42045;52.986;6.014;2023-02-01T08:31:29;5.90;99.90
56162;DHT22;42045;52.986;6.014;2023-02-01T08:33:57;5.90;99.90
56162;DHT22;42045;52.986;6.014;2023-02-01T08:36:28;5.90;99.90
56162;DHT22;42045;52.986;6.014;2023-02-01T08:38:59;6.00;99.90
56162;DHT22;42045;52.986;6.014;2023-02-01T08:41:27;6.00;99.90
56162;DHT22;42045;52.986;6.014;2023-02-01T08:43:56;6.00;99.90
56162;DHT22;42045;52.986;6.014;2023-02-01T08:46:22;6.00;99.90
56162;DHT22;42045;52.986;6.014;2023-02-01T08:48:50;6.00;99.90
56162;DHT22;42045;52.986;6.014;2023-02-01T08:51:18;6.10;99.90
56162;DHT22;42045;52.986;6.014;2023-02-01T08:53:46;6.10;99.90
56162;DHT22;42045;52.986;6.014;2023-02-01T08:56:14;6.10;99.90
56162;DHT22;42045;52.986;6.014;2023-02-01T08:58:44;6.10;99.90
56162;DHT22;42045;52.986;6.014;2023-02-01T09:01:12;6.10;99.90
56162;DHT22;42045;52.986;6.014;2023-02-01T09:03:38;6.10;99.90
56162;DHT22;42045;52.986;6.014;2023-02-01T09:06:09;6.10;99.90
56162;DHT22;42045;52.986;6.014;2023-02-01T09:08:36;6.10;99.90
56162;DHT22;42045;52.986;6.014;2023-02-01T09:11:09;6.10;99.90
56162;DHT22;42045;52.986;6.014;2023-02-01T09:13:35;6.10;99.90
56162;DHT22;42045;52.986;6.014;2023-02-01T09:16:02;6.10;99.90
56162;DHT22;42045;52.986;6.014;2023-02-01T09:18:28;6.10;99.90
56162;DHT22;42045;52.986;6.014;2023-02-01T09:20:54;6.10;99.90
56162;DHT22;42045;52.986;6.014;2023-02-01T09:23:20;6.10;99.90
56162;DHT22;42045;52.986;6.014;2023-02-01T09:25:46;6.10;99.90
56162;DHT22;42045;52.986;6.014;2023-02-01T09:28:12;6.10;99.90
56162;DHT22;42045;52.986;6.014;2023-02-01T09:30:40;6.00;99.90
56162;DHT22;42045;52.986;6.014;2023-02-01T09:33:06;6.10;99.90
56162;DHT22;42045;52.986;6.014;2023-02-01T09:35:35;6.10;99.90
56162;DHT22;42045;52.986;6.014;2023-02-01T09:38:03;6.10;99.90
56162;DHT22;42045;52.986;6.014;2023-02-01T09:40:31;6.10;99.90
56162;DHT22;42045;52.986;6.014;2023-02-01T09:45:44;6.10;99.90
56162;DHT22;42045;52.986;6.014;2023-02-01T09:48:15;6.20;99.90
56162;DHT22;42045;52.986;6.014;2023-02-01T09:50:47;6.20;99.90
56162;DHT22;42045;52.986;6.014;2023-02-01T09:53:27;6.20;99.90
56162;DHT22;42045;52.986;6.014;2023-02-01T09:56:13;6.20;99.90
56162;DHT22;42045;52.986;6.014;2023-02-01T10:01:47;6.20;99.90
56162;DHT22;42045;52.986;6.014;2023-02-01T10:04:14;6.30;99.90
56162;DHT22;42045;52.986;6.014;2023-02-01T10:09:50;6.30;99.90
56162;DHT22;42045;52.986;6.014;2023-02-01T10:15:35;6.40;99.90
56162;DHT22;42045;52.986;6.014;2023-02-01T10:18:24;6.40;99.90
56162;DHT22;42045;52.986;6.014;2023-02-01T10:21:01;6.40;99.90
56162;DHT22;42045;52.986;6.014;2023-02-01T10:26:27;6.40;99.90
56162;DHT22;42045;52.986;6.014;2023-02-01T10:29:01;6.50;99.90
56162;DHT22;42045;52.986;6.014;2023-02-01T10:31:35;6.50;99.90
56162;DHT22;42045;52.986;6.014;2023-02-01T10:34:15;6.60;99.90
56162;DHT22;42045;52.986;6.014;2023-02-01T10:37:07;6.60;99.90
56162;DHT22;42045;52.986;6.014;2023-02-01T10:39:35;6.60;99.90
56162;DHT22;42045;52.986;6.014;2023-02-01T10:42:02;6.70;99.90
56162;DHT22;42045;52.986;6.014;2023-02-01T10:44:30;6.70;99.90
56162;DHT22;42045;52.986;6.014;2023-02-01T10:46:56;6.80;99.90
56162;DHT22;42045;52.986;6.014;2023-02-01T10:49:47;6.80;99.90
56162;DHT22;42045;52.986;6.014;2023-02-01T10:58:03;6.90;99.90
56162;DHT22;42045;52.986;6.014;2023-02-01T11:00:41;6.90;99.90
56162;DHT22;42045;52.986;6.014;2023-02-01T11:03:40;6.90;99.90
56162;DHT22;42045;52.986;6.014;2023-02-01T11:08:48;6.90;99.90
56162;DHT22;42045;52.986;6.014;2023-02-01T11:11:16;6.90;99.90
56162;DHT22;42045;52.986;6.014;2023-02-01T11:13:52;6.90;99.90
56162;DHT22;42045;52.986;6.014;2023-02-01T11:16:29;6.90;99.90
56162;DHT22;42045;52.986;6.014;2023-02-01T11:18:58;6.90;99.90
56162;DHT22;42045;52.986;6.014;2023-02-01T11:21:26;6.90;99.90
56162;DHT22;42045;52.986;6.014;2023-02-01T11:23:52;6.90;99.90
56162;DHT22;42045;52.986;6.014;2023-02-01T11:26:26;6.90;99.90
56162;DHT22;42045;52.986;6.014;2023-02-01T11:28:57;6.80;99.90
56162;DHT22;42045;52.986;6.014;2023-02-01T11:31:28;6.80;99.90
56162;DHT22;42045;52.986;6.014;2023-02-01T11:34:15;6.80;99.90
56162;DHT22;42045;52.986;6.014;2023-02-01T11:36:41;6.80;99.90
56162;DHT22;42045;52.986;6.014;2023-02-01T11:41:55;6.60;99.90
56162;DHT22;42045;52.986;6.014;2023-02-01T11:44:41;6.50;99.90
56162;DHT22;42045;52.986;6.014;2023-02-01T11:47:24;6.50;99.90
56162;DHT22;42045;52.986;6.014;2023-02-01T11:49:55;6.50;99.90
56162;DHT22;42045;52.986;6.014;2023-02-01T11:59:07;6.60;99.90
56162;DHT22;42045;52.986;6.014;2023-02-01T12:20:28;7.10;99.90
56162;DHT22;42045;52.986;6.014;2023-02-01T12:36:08;7.30;99.90
56162;DHT22;42045;52.986;6.014;2023-02-01T12:41:48;7.30;99.90
56162;DHT22;42045;52.986;6.014;2023-02-01T12:44:34;7.30;99.90
56162;DHT22;42045;52.986;6.014;2023-02-01T12:47:14;7.30;99.90
56162;DHT22;42045;52.986;6.014;2023-02-01T12:52:37;7.30;99.90
56162;DHT22;42045;52.986;6.014;2023-02-01T12:57:40;7.20;99.90
56162;DHT22;42045;52.986;6.014;2023-02-01T13:05:22;7.30;99.90
56162;DHT22;42045;52.986;6.014;2023-02-01T13:08:21;7.30;99.90
56162;DHT22;42045;52.986;6.014;2023-02-01T13:11:03;7.30;99.90
56162;DHT22;42045;52.986;6.014;2023-02-01T13:13:40;7.30;99.90
56162;DHT22;42045;52.986;6.014;2023-02-01T13:16:43;7.30;99.90
56162;DHT22;42045;52.986;6.014;2023-02-01T13:19:27;7.40;99.90
56162;DHT22;42045;52.986;6.014;2023-02-01T13:22:10;7.40;99.90
56162;DHT22;42045;52.986;6.014;2023-02-01T13:24:46;7.50;99.90
56162;DHT22;42045;52.986;6.014;2023-02-01T13:27:14;7.50;99.90
56162;DHT22;42045;52.986;6.014;2023-02-01T13:29:51;7.60;99.90
56162;DHT22;42045;52.986;6.014;2023-02-01T13:35:35;7.70;99.90
56162;DHT22;42045;52.986;6.014;2023-02-01T13:40:44;7.70;99.90
56162;DHT22;42045;52.986;6.014;2023-02-01T13:43:23;7.80;99.90
56162;DHT22;42045;52.986;6.014;2023-02-01T13:45:53;7.90;99.90
56162;DHT22;42045;52.986;6.014;2023-02-01T13:50:56;8.00;99.90
56162;DHT22;42045;52.986;6.014;2023-02-01T13:53:32;8.00;99.90
56162;DHT22;42045;52.986;6.014;2023-02-01T13:56:10;8.10;99.90
56162;DHT22;42045;52.986;6.014;2023-02-01T13:58:39;8.00;99.90
56162;DHT22;42045;52.986;6.014;2023-02-01T14:03:48;8.00;99.90
56162;DHT22;42045;52.986;6.014;2023-02-01T14:09:15;8.00;99.90
56162;DHT22;42045;52.986;6.014;2023-02-01T14:11:53;8.00;99.90
56162;DHT22;42045;52.986;6.014;2023-02-01T14:19:48;8.10;99.90
56162;DHT22;42045;52.986;6.014;2023-02-01T14:24:51;8.00;99.90
56162;DHT22;42045;52.986;6.014;2023-02-01T14:27:23;7.90;99.90
56162;DHT22;42045;52.986;6.014;2023-02-01T14:29:56;7.90;99.90
56162;DHT22;42045;52.986;6.014;2023-02-01T14:32:30;7.80;99.90
56162;DHT22;42045;52.986;6.014;2023-02-01T14:35:02;7.80;99.90
56162;DHT22;42045;52.986;6.014;2023-02-01T14:37:34;7.80;99.90
56162;DHT22;42045;52.986;6.014;2023-02-01T14:42:42;7.80;99.90
56162;DHT22;42045;52.986;6.014;2023-02-01T15:12:15;7.80;99.90
56162;DHT22;42045;52.986;6.014;2023-02-01T15:14:46;7.70;99.90
56162;DHT22;42045;52.986;6.014;2023-02-01T15:17:27;7.70;99.90
56162;DHT22;42045;52.986;6.014;2023-02-01T15:19:59;7.70;99.90
56162;DHT22;42045;52.986;6.014;2023-02-01T15:22:28;7.70;99.90
56162;DHT22;42045;52.986;6.014;2023-02-01T15:24:57;7.70;99.90
56162;DHT22;42045;52.986;6.014;2023-02-01T15:27:24;7.80;99.90
56162;DHT22;42045;52.986;6.014;2023-02-01T15:29:50;7.80;99.90
56162;DHT22;42045;52.986;6.014;2023-02-01T15:32:30;7.70;99.90
56162;DHT22;42045;52.986;6.014;2023-02-01T15:35:02;7.70;99.90
56162;DHT22;42045;52.986;6.014;2023-02-01T15:37:29;7.60;99.90
56162;DHT22;42045;52.986;6.014;2023-02-01T15:40:20;7.60;99.90
56162;DHT22;42045;52.986;6.014;2023-02-01T15:42:58;7.50;99.90
56162;DHT22;42045;52.986;6.014;2023-02-01T15:45:29;7.40;99.90
56162;DHT22;42045;52.986;6.014;2023-02-01T15:47:58;7.30;99.90
56162;DHT22;42045;52.986;6.014;2023-02-01T15:50:24;7.20;99.90
56162;DHT22;42045;52.986;6.014;2023-02-01T15:52:53;7.20;99.90
56162;DHT22;42045;52.986;6.014;2023-02-01T15:55:44;7.10;99.90
56162;DHT22;42045;52.986;6.014;2023-02-01T15:58:29;7.10;99.90
56162;DHT22;42045;52.986;6.014;2023-02-01T16:01:03;7.00;99.90
56162;DHT22;42045;52.986;6.014;2023-02-01T16:03:43;7.00;99.90
56162;DHT22;42045;52.986;6.014;2023-02-01T16:06:32;6.90;99.90
56162;DHT22;42045;52.986;6.014;2023-02-01T16:09:09;6.90;99.90
56162;DHT22;42045;52.986;6.014;2023-02-01T16:11:45;6.90;99.90
56162;DHT22;42045;52.986;6.014;2023-02-01T16:14:12;6.80;99.90
56162;DHT22;42045;52.986;6.014;2023-02-01T16:16:39;6.80;99.90
56162;DHT22;42045;52.986;6.014;2023-02-01T16:19:04;6.70;99.90
56162;DHT22;42045;52.986;6.014;2023-02-01T16:21:33;6.60;99.90
56162;DHT22;42045;52.986;6.014;2023-02-01T16:24:01;6.60;99.90
56162;DHT22;42045;52.986;6.014;2023-02-01T16:26:30;6.60;99.90
56162;DHT22;42045;52.986;6.014;2023-02-01T16:28:57;6.50;99.90
56162;DHT22;42045;52.986;6.014;2023-02-01T16:31:28;6.50;99.90
56162;DHT22;42045;52.986;6.014;2023-02-01T16:33:54;6.40;99.90
56162;DHT22;42045;52.986;6.014;2023-02-01T16:36:21;6.40;99.90
56162;DHT22;42045;52.986;6.014;2023-02-01T16:38:47;6.40;99.90
56162;DHT22;42045;52.986;6.014;2023-02-01T16:41:16;6.30;99.90
56162;DHT22;42045;52.986;6.014;2023-02-01T16:43:43;6.20;99.90
56162;DHT22;42045;52.986;6.014;2023-02-01T16:46:16;6.30;99.90
56162;DHT22;42045;52.986;6.014;2023-02-01T16:48:48;6.20;99.90
56162;DHT22;42045;52.986;6.014;2023-02-01T16:51:16;6.30;99.90
56162;DHT22;42045;52.986;6.014;2023-02-01T16:53:43;6.20;99.90
56162;DHT22;42045;52.986;6.014;2023-02-01T16:56:22;6.20;99.90
56162;DHT22;42045;52.986;6.014;2023-02-01T16:58:51;6.20;99.90
56162;DHT22;42045;52.986;6.014;2023-02-01T17:01:18;6.20;99.90
56162;DHT22;42045;52.986;6.014;2023-02-01T17:03:45;6.20;99.90
56162;DHT22;42045;52.986;6.014;2023-02-01T17:06:14;6.10;99.90
56162;DHT22;42045;52.986;6.014;2023-02-01T17:08:42;6.10;99.90
56162;DHT22;42045;52.986;6.014;2023-02-01T17:11:11;6.00;99.90
56162;DHT22;42045;52.986;6.014;2023-02-01T17:13:39;6.00;99.90
56162;DHT22;42045;52.986;6.014;2023-02-01T17:16:22;6.00;99.90
56162;DHT22;42045;52.986;6.014;2023-02-01T17:19:01;5.90;99.90
56162;DHT22;42045;52.986;6.014;2023-02-01T17:21:44;5.90;99.90
56162;DHT22;42045;52.986;6.014;2023-02-01T17:24:13;5.90;99.90
56162;DHT22;42045;52.986;6.014;2023-02-01T17:26:40;5.80;99.90
56162;DHT22;42045;52.986;6.014;2023-02-01T17:29:06;5.80;99.90
56162;DHT22;42045;52.986;6.014;2023-02-01T17:31:35;5.80;99.90
56162;DHT22;42045;52.986;6.014;2023-02-01T17:34:02;5.70;99.90
56162;DHT22;42045;52.986;6.014;2023-02-01T17:36:30;5.60;99.90
56162;DHT22;42045;52.986;6.014;2023-02-01T17:38:56;5.60;99.90
56162;DHT22;42045;52.986;6.014;2023-02-01T17:41:23;5.50;99.90
56162;DHT22;42045;52.986;6.014;2023-02-01T17:43:50;5.50;99.90
56162;DHT22;42045;52.986;6.014;2023-02-01T17:46:17;5.50;99.90
56162;DHT22;42045;52.986;6.014;2023-02-01T17:48:43;5.50;99.90
56162;DHT22;42045;52.986;6.014;2023-02-01T17:51:25;5.40;99.90
56162;DHT22;42045;52.986;6.014;2023-02-01T17:53:53;5.50;99.90
56162;DHT22;42045;52.986;6.014;2023-02-01T17:56:22;5.40;99.90
56162;DHT22;42045;52.986;6.014;2023-02-01T17:58:49;5.40;99.90
56162;DHT22;42045;52.986;6.014;2023-02-01T18:01:20;5.40;99.90
56162;DHT22;42045;52.986;6.014;2023-02-01T18:03:47;5.50;99.90
56162;DHT22;42045;52.986;6.014;2023-02-01T18:06:18;5.40;99.90
56162;DHT22;42045;52.986;6.014;2023-02-01T18:08:45;5.40;99.90
56162;DHT22;42045;52.986;6.014;2023-02-01T18:11:19;5.50;99.90
56162;DHT22;42045;52.986;6.014;2023-02-01T18:13:46;5.50;99.90
56162;DHT22;42045;52.986;6.014;2023-02-01T18:18:43;5.60;99.90
56162;DHT22;42045;52.986;6.014;2023-02-01T18:21:09;5.50;99.90
56162;DHT22;42045;52.986;6.014;2023-02-01T18:23:35;5.50;99.90
56162;DHT22;42045;52.986;6.014;2023-02-01T18:26:01;5.50;99.90
56162;DHT22;42045;52.986;6.014;2023-02-01T18:28:26;5.50;99.90
56162;DHT22;42045;52.986;6.014;2023-02-01T18:30:52;5.60;99.90
56162;DHT22;42045;52.986;6.014;2023-02-01T18:33:20;5.50;99.90
56162;DHT22;42045;52.986;6.014;2023-02-01T18:35:46;5.40;99.90
56162;DHT22;42045;52.986;6.014;2023-02-01T18:38:13;5.40;99.90
56162;DHT22;42045;52.986;6.014;2023-02-01T18:40:49;5.40;99.90
56162;DHT22;42045;52.986;6.014;2023-02-01T18:43:15;5.40;99.90
56162;DHT22;42045;52.986;6.014;2023-02-01T18:45:43;5.40;99.90
56162;DHT22;42045;52.986;6.014;2023-02-01T18:48:16;5.30;99.90
56162;DHT22;42045;52.986;6.014;2023-02-01T18:50:46;5.30;99.90